sensor_id;sensor_type;location;lat;lon;timestamp;pressure;altitude;pressure_sealevel;temperature;humidity
46614;BME280;32338;50.430;6.806;2023-04-25T00:01:32;65941.50;;;4.80;100.00
46614;BME280;32338;50.430;6.806;2023-04-25T00:04:01;65937.22;;;4.78;100.00
46614;BME280;32338;50.430;6.806;2023-04-25T00:06:29;65943.88;;;4.77;100.00
46614;BME280;32338;50.430;6.806;2023-04-25T00:08:57;65935.69;;;4.72;100.00
46614;BME280;32338;50.430;6.806;2023-04-25T00:11:23;65931.59;;;4.73;100.00
46614;BME280;32338;50.430;6.806;2023-04-25T00:13:50;65933.09;;;4.72;100.00
46614;BME280;32338;50.430;6.806;2023-04-25T00:16:16;65929.72;;;4.69;100.00
46614;BME280;32338;50.430;6.806;2023-04-25T00:18:43;65932.88;;;4.69;100.00
46614;BME280;32338;50.430;6.806;2023-04-25T00:21:11;65924.13;;;4.64;100.00
46614;BME280;32338;50.430;6.806;2023-04-25T00:23:39;65918.50;;;4.59;100.00
46614;BME280;32338;50.430;6.806;2023-04-25T00:26:06;65913.13;;;4.56;100.00
46614;BME280;32338;50.430;6.806;2023-04-25T00:28:32;65907.31;;;4.48;100.00
46614;BME280;32338;50.430;6.806;2023-04-25T00:30:59;65898.34;;;4.40;100.00
46614;BME280;32338;50.430;6.806;2023-04-25T00:33:26;65891.75;;;4.29;100.00
46614;BME280;32338;50.430;6.806;2023-04-25T00:35:52;65889.38;;;4.32;100.00
46614;BME280;32338;50.430;6.806;2023-04-25T00:38:19;65894.22;;;4.34;100.00
46614;BME280;32338;50.430;6.806;2023-04-25T00:40:47;65887.88;;;4.33;100.00
46614;BME280;32338;50.430;6.806;2023-04-25T00:43:13;65891.25;;;4.36;100.00
46614;BME280;32338;50.430;6.806;2023-04-25T00:45:40;65898.13;;;4.37;100.00
46614;BME280;32338;50.430;6.806;2023-04-25T00:48:07;65896.66;;;4.38;100.00
46614;BME280;32338;50.430;6.806;2023-04-25T00:50:34;65898.69;;;4.38;100.00
46614;BME280;32338;50.430;6.806;2023-04-25T00:53:01;65895.31;;;4.35;100.00
46614;BME280;32338;50.430;6.806;2023-04-25T00:55:28;65899.81;;;4.39;100.00
46614;BME280;32338;50.430;6.806;2023-04-25T00:57:58;65895.31;;;4.35;100.00
46614;BME280;32338;50.430;6.806;2023-04-25T01:00:24;65896.81;;;4.34;100.00
46614;BME280;32338;50.430;6.806;2023-04-25T01:02:51;65885.66;;;4.31;100.00
46614;BME280;32338;50.430;6.806;2023-04-25T01:05:18;65883.56;;;4.24;100.00
46614;BME280;32338;50.430;6.806;2023-04-25T01:07:44;65878.31;;;4.17;100.00
46614;BME280;32338;50.430;6.806;2023-04-25T01:10:12;65867.31;;;4.09;100.00
46614;BME280;32338;50.430;6.806;2023-04-25T01:12:39;65854.63;;;4.00;100.00
46614;BME280;32338;50.430;6.806;2023-04-25T01:15:08;65845.88;;;3.94;100.00
46614;BME280;32338;50.430;6.806;2023-04-25T01:17:34;65844.00;;;3.90;100.00
46614;BME280;32338;50.430;6.806;2023-04-25T01:20:03;65838.59;;;3.87;100.00
46614;BME280;32338;50.430;6.806;2023-04-25T01:22:32;65840.06;;;3.86;100.00
46614;BME280;32338;50.430;6.806;2023-04-25T01:24:59;65839.16;;;3.88;100.00
46614;BME280;32338;50.430;6.806;2023-04-25T01:27:26;65846.78;;;3.93;100.00
46614;BME280;32338;50.430;6.806;2023-04-25T01:29:54;65853.88;;;3.97;100.00
46614;BME280;32338;50.430;6.806;2023-04-25T01:32:21;65858.00;;;4.03;100.00
46614;BME280;32338;50.430;6.806;2023-04-25T01:34:48;65852.19;;;3.95;100.00
46614;BME280;32338;50.430;6.806;2023-04-25T01:37:16;65838.19;;;3.82;100.00
46614;BME280;32338;50.430;6.806;2023-04-25T01:39:44;65819.34;;;3.67;100.00
46614;BME280;32338;50.430;6.806;2023-04-25T01:42:12;65822.38;;;3.72;100.00
46614;BME280;32338;50.430;6.806;2023-04-25T01:44:39;65837.69;;;3.89;100.00
46614;BME280;32338;50.430;6.806;2023-04-25T01:47:05;65846.03;;;3.89;100.00
46614;BME280;32338;50.430;6.806;2023-04-25T01:49:32;65841.00;;;3.85;100.00
46614;BME280;32338;50.430;6.806;2023-04-25T01:51:58;65830.75;;;3.80;100.00
46614;BME280;32338;50.430;6.806;2023-04-25T01:54:25;65838.75;;;3.83;100.00
46614;BME280;32338;50.430;6.806;2023-04-25T01:56:57;65841.75;;;3.88;100.00
46614;BME280;32338;50.430;6.806;2023-04-25T01:59:23;65844.34;;;3.88;100.00
46614;BME280;32338;50.430;6.806;2023-04-25T02:01:50;65835.81;;;3.85;100.00
46614;BME280;32338;50.430;6.806;2023-04-25T02:04:17;65834.69;;;3.84;100.00
46614;BME280;32338;50.430;6.806;2023-04-25T02:06:43;65842.88;;;3.89;100.00
46614;BME280;32338;50.430;6.806;2023-04-25T02:09:10;65855.41;;;4.03;100.00
46614;BME280;32338;50.430;6.806;2023-04-25T02:11:37;65854.06;;;3.99;100.00
46614;BME280;32338;50.430;6.806;2023-04-25T02:14:04;65842.66;;;3.86;100.00
46614;BME280;32338;50.430;6.806;2023-04-25T02:16:31;65847.13;;;3.90;100.00
46614;BME280;32338;50.430;6.806;2023-04-25T02:18:58;65844.78;;;3.93;100.00
46614;BME280;32338;50.430;6.806;2023-04-25T02:21:25;65855.56;;;3.98;100.00
46614;BME280;32338;50.430;6.806;2023-04-25T02:23:51;65853.72;;;4.01;100.00
46614;BME280;32338;50.430;6.806;2023-04-25T02:26:19;65856.88;;;4.02;100.00
46614;BME280;32338;50.430;6.806;2023-04-25T02:28:46;65849.97;;;3.93;100.00
46614;BME280;32338;50.430;6.806;2023-04-25T02:31:14;65838.41;;;3.85;100.00
46614;BME280;32338;50.430;6.806;2023-04-25T02:33:40;65832.81;;;3.80;100.00
46614;BME280;32338;50.430;6.806;2023-04-25T02:36:07;65829.22;;;3.74;100.00
46614;BME280;32338;50.430;6.806;2023-04-25T02:38:34;65821.03;;;3.69;100.00
46614;BME280;32338;50.430;6.806;2023-04-25T02:41:01;65813.56;;;3.60;100.00
46614;BME280;32338;50.430;6.806;2023-04-25T02:43:27;65824.75;;;3.70;100.00
46614;BME280;32338;50.430;6.806;2023-04-25T02:45:54;65816.75;;;3.67;100.00
46614;BME280;32338;50.430;6.806;2023-04-25T02:48:22;65812.63;;;3.61;100.00
46614;BME280;32338;50.430;6.806;2023-04-25T02:50:48;65805.38;;;3.54;100.00
46614;BME280;32338;50.430;6.806;2023-04-25T02:53:15;65804.03;;;3.51;100.00
46614;BME280;32338;50.430;6.806;2023-04-25T02:55:41;65795.47;;;3.48;100.00
46614;BME280;32338;50.430;6.806;2023-04-25T02:58:08;65797.88;;;3.45;100.00
46614;BME280;32338;50.430;6.806;2023-04-25T03:00:35;65799.53;;;3.47;100.00
46614;BME280;32338;50.430;6.806;2023-04-25T03:03:02;65798.44;;;3.46;100.00
46614;BME280;32338;50.430;6.806;2023-04-25T03:05:30;65797.31;;;3.45;100.00
46614;BME280;32338;50.430;6.806;2023-04-25T03:07:56;65795.06;;;3.43;100.00
46614;BME280;32338;50.430;6.806;2023-04-25T03:10:24;65794.94;;;3.47;100.00
46614;BME280;32338;50.430;6.806;2023-04-25T03:12:50;65802.56;;;3.52;100.00
46614;BME280;32338;50.430;6.806;2023-04-25T03:15:17;65809.63;;;3.56;100.00
46614;BME280;32338;50.430;6.806;2023-04-25T03:17:44;65820.69;;;3.71;100.00
46614;BME280;32338;50.430;6.806;2023-04-25T03:20:11;65816.91;;;3.63;100.00
46614;BME280;32338;50.430;6.806;2023-04-25T03:22:39;65819.00;;;3.69;100.00
46614;BME280;32338;50.430;6.806;2023-04-25T03:25:06;65823.63;;;3.69;100.00
46614;BME280;32338;50.430;6.806;2023-04-25T03:27:33;65825.88;;;3.71;100.00
46614;BME280;32338;50.430;6.806;2023-04-25T03:30:00;65813.19;;;3.62;100.00
46614;BME280;32338;50.430;6.806;2023-04-25T03:32:26;65807.25;;;3.59;100.00
46614;BME280;32338;50.430;6.806;2023-04-25T03:34:53;65810.97;;;3.60;100.00
46614;BME280;32338;50.430;6.806;2023-04-25T03:37:20;65809.06;;;3.55;100.00
46614;BME280;32338;50.430;6.806;2023-04-25T03:39:48;65811.44;;;3.53;100.00
46614;BME280;32338;50.430;6.806;2023-04-25T03:42:14;65805.16;;;3.52;100.00
46614;BME280;32338;50.430;6.806;2023-04-25T03:44:41;65806.06;;;3.50;100.00
46614;BME280;32338;50.430;6.806;2023-04-25T03:47:07;65796.41;;;3.46;100.00
46614;BME280;32338;50.430;6.806;2023-04-25T03:49:34;65788.56;;;3.39;100.00
46614;BME280;32338;50.430;6.806;2023-04-25T03:52:01;65799.19;;;3.49;100.00
46614;BME280;32338;50.430;6.806;2023-04-25T03:54:27;65807.97;;;3.54;100.00
46614;BME280;32338;50.430;6.806;2023-04-25T03:56:55;65792.47;;;3.43;100.00
46614;BME280;32338;50.430;6.806;2023-04-25T03:59:22;65778.13;;;3.32;100.00
46614;BME280;32338;50.430;6.806;2023-04-25T04:01:50;65775.47;;;3.24;100.00
46614;BME280;32338;50.430;6.806;2023-04-25T04:04:16;65775.13;;;3.27;100.00
46614;BME280;32338;50.430;6.806;2023-04-25T04:06:43;65785.22;;;3.36;100.00
46614;BME280;32338;50.430;6.806;2023-04-25T04:09:11;65782.19;;;3.31;100.00
46614;BME280;32338;50.430;6.806;2023-04-25T04:11:38;65776.59;;;3.26;100.00
46614;BME280;32338;50.430;6.806;2023-04-25T04:14:06;65782.19;;;3.31;100.00
46614;BME280;32338;50.430;6.806;2023-04-25T04:16:33;65788.34;;;3.36;100.00
46614;BME280;32338;50.430;6.806;2023-04-25T04:19:00;65785.22;;;3.36;100.00
46614;BME280;32338;50.430;6.806;2023-04-25T04:21:26;65788.56;;;3.39;100.00
46614;BME280;32338;50.430;6.806;2023-04-25T04:23:54;65791.34;;;3.41;100.00
46614;BME280;32338;50.430;6.806;2023-04-25T04:26:23;65786.88;;;3.37;100.00
46614;BME280;32338;50.430;6.806;2023-04-25T04:28:49;65797.31;;;3.45;100.00
46614;BME280;32338;50.430;6.806;2023-04-25T04:31:18;65787.88;;;3.43;100.00
46614;BME280;32338;50.430;6.806;2023-04-25T04:33:45;65809.97;;;3.54;100.00
46614;BME280;32338;50.430;6.806;2023-04-25T04:36:11;65802.34;;;3.49;100.00
46614;BME280;32338;50.430;6.806;2023-04-25T04:38:38;65792.81;;;3.40;100.00
46614;BME280;32338;50.430;6.806;2023-04-25T04:41:05;65796.41;;;3.46;100.00
46614;BME280;32338;50.430;6.806;2023-04-25T04:43:32;65784.63;;;3.35;100.00
46614;BME280;32338;50.430;6.806;2023-04-25T04:46:00;65782.75;;;3.31;100.00
46614;BME280;32338;50.430;6.806;2023-04-25T04:48:28;65783.88;;;3.32;100.00
46614;BME280;32338;50.430;6.806;2023-04-25T04:50:57;65798.06;;;3.48;100.00
46614;BME280;32338;50.430;6.806;2023-04-25T04:53:24;65799.19;;;3.49;100.00
46614;BME280;32338;50.430;6.806;2023-04-25T04:55:51;65797.66;;;3.43;100.00
46614;BME280;32338;50.430;6.806;2023-04-25T04:58:17;65790.81;;;3.41;100.00
46614;BME280;32338;50.430;6.806;2023-04-25T05:00:44;65784.44;;;3.33;100.00
46614;BME280;32338;50.430;6.806;2023-04-25T05:03:11;65782.75;;;3.31;100.00
46614;BME280;32338;50.430;6.806;2023-04-25T05:05:39;65790.03;;;3.38;100.00
46614;BME280;32338;50.430;6.806;2023-04-25T05:08:06;65794.88;;;3.40;100.00
46614;BME280;32338;50.430;6.806;2023-04-25T05:10:32;65799.53;;;3.47;100.00
46614;BME280;32338;50.430;6.806;2023-04-25T05:12:59;65794.16;;;3.44;100.00
46614;BME280;32338;50.430;6.806;2023-04-25T05:15:27;65793.06;;;3.43;100.00
46614;BME280;32338;50.430;6.806;2023-04-25T05:17:53;65808.09;;;3.50;100.00
46614;BME280;32338;50.430;6.806;2023-04-25T05:20:20;65807.97;;;3.54;100.00
46614;BME280;32338;50.430;6.806;2023-04-25T05:22:48;65820.28;;;3.66;100.00
46614;BME280;32338;50.430;6.806;2023-04-25T05:25:14;65822.16;;;3.70;100.00
46614;BME280;32338;50.430;6.806;2023-04-25T05:27:41;65820.13;;;3.70;100.00
46614;BME280;32338;50.430;6.806;2023-04-25T05:30:08;65833.34;;;3.80;100.00
46614;BME280;32338;50.430;6.806;2023-04-25T05:32:35;65821.41;;;3.67;100.00
46614;BME280;32338;50.430;6.806;2023-04-25T05:35:01;65814.47;;;3.58;100.00
46614;BME280;32338;50.430;6.806;2023-04-25T05:37:28;65816.75;;;3.67;100.00
46614;BME280;32338;50.430;6.806;2023-04-25T05:39:57;65823.63;;;3.69;100.00
46614;BME280;32338;50.430;6.806;2023-04-25T05:42:24;65821.59;;;3.69;100.00
46614;BME280;32338;50.430;6.806;2023-04-25T05:44:50;65822.16;;;3.70;100.00
46614;BME280;32338;50.430;6.806;2023-04-25T05:47:17;65821.81;;;3.72;100.00
46614;BME280;32338;50.430;6.806;2023-04-25T05:49:43;65818.44;;;3.69;100.00
46614;BME280;32338;50.430;6.806;2023-04-25T05:52:10;65827.00;;;3.72;100.00
46614;BME280;32338;50.430;6.806;2023-04-25T05:54:37;65820.81;;;3.66;100.00
46614;BME280;32338;50.430;6.806;2023-04-25T05:57:04;65809.28;;;3.58;100.00
46614;BME280;32338;50.430;6.806;2023-04-25T05:59:31;65813.75;;;3.62;100.00
46614;BME280;32338;50.430;6.806;2023-04-25T06:01:58;65817.69;;;3.66;100.00
46614;BME280;32338;50.430;6.806;2023-04-25T06:04:26;65813.75;;;3.62;100.00
46614;BME280;32338;50.430;6.806;2023-04-25T06:06:52;65822.50;;;3.68;100.00
46614;BME280;32338;50.430;6.806;2023-04-25T06:09:19;65816.75;;;3.67;100.00
46614;BME280;32338;50.430;6.806;2023-04-25T06:11:45;65814.72;;;3.68;100.00
46614;BME280;32338;50.430;6.806;2023-04-25T06:14:13;65823.63;;;3.69;100.00
46614;BME280;32338;50.430;6.806;2023-04-25T06:16:40;65812.28;;;3.63;100.00
46614;BME280;32338;50.430;6.806;2023-04-25T06:19:06;65817.31;;;3.68;100.00
46614;BME280;32338;50.430;6.806;2023-04-25T06:21:33;65831.69;;;3.79;100.00
46614;BME280;32338;50.430;6.806;2023-04-25T06:23:59;65863.97;;;4.06;100.00
46614;BME280;32338;50.430;6.806;2023-04-25T06:26:26;65858.00;;;4.03;100.00
46614;BME280;32338;50.430;6.806;2023-04-25T06:28:52;65836.34;;;3.85;100.00
46614;BME280;32338;50.430;6.806;2023-04-25T06:31:20;65853.88;;;3.97;100.00
46614;BME280;32338;50.430;6.806;2023-04-25T06:33:47;65862.13;;;4.09;100.00
46614;BME280;32338;50.430;6.806;2023-04-25T06:36:14;65858.34;;;4.01;100.00
46614;BME280;32338;50.430;6.806;2023-04-25T06:38:41;65853.88;;;3.97;100.00
46614;BME280;32338;50.430;6.806;2023-04-25T06:41:07;65861.91;;;4.06;100.00
46614;BME280;32338;50.430;6.806;2023-04-25T06:43:34;65871.22;;;4.13;100.00
46614;BME280;32338;50.430;6.806;2023-04-25T06:46:00;65858.91;;;4.01;100.00
46614;BME280;32338;50.430;6.806;2023-04-25T06:48:28;65859.91;;;4.07;100.00
46614;BME280;32338;50.430;6.806;2023-04-25T06:50:55;65863.81;;;4.11;100.00
46614;BME280;32338;50.430;6.806;2023-04-25T06:53:22;65863.59;;;4.08;100.00
46614;BME280;32338;50.430;6.806;2023-04-25T06:55:48;65857.09;;;4.04;100.00
46614;BME280;32338;50.430;6.806;2023-04-25T06:58:15;65865.09;;;4.07;100.00
46614;BME280;32338;50.430;6.806;2023-04-25T07:00:41;65862.50;;;4.07;100.00
46614;BME280;32338;50.430;6.806;2023-04-25T07:03:08;65874.25;;;4.18;100.00
46614;BME280;32338;50.430;6.806;2023-04-25T07:05:36;65858.19;;;4.05;100.00
46614;BME280;32338;50.430;6.806;2023-04-25T07:08:02;65858.19;;;4.05;100.00
46614;BME280;32338;50.430;6.806;2023-04-25T07:10:29;65866.19;;;4.08;100.00
46614;BME280;32338;50.430;6.806;2023-04-25T07:12:56;65863.38;;;4.05;100.00
46614;BME280;32338;50.430;6.806;2023-04-25T07:15:22;65876.28;;;4.17;100.00
46614;BME280;32338;50.430;6.806;2023-04-25T07:17:49;65864.16;;;4.09;100.00
46614;BME280;32338;50.430;6.806;2023-04-25T07:20:15;65866.75;;;4.09;100.00
46614;BME280;32338;50.430;6.806;2023-04-25T07:22:43;65874.44;;;4.20;100.00
46614;BME280;32338;50.430;6.806;2023-04-25T07:25:10;65888.81;;;4.31;100.00
46614;BME280;32338;50.430;6.806;2023-04-25T07:27:37;65907.66;;;4.46;100.00
46614;BME280;32338;50.430;6.806;2023-04-25T07:30:05;65899.81;;;4.39;100.00
46614;BME280;32338;50.430;6.806;2023-04-25T07:32:32;65889.56;;;4.34;100.00
46614;BME280;32338;50.430;6.806;2023-04-25T07:34:58;65890.28;;;4.30;100.00
46614;BME280;32338;50.430;6.806;2023-04-25T07:37:26;65899.47;;;4.41;100.00
46614;BME280;32338;50.430;6.806;2023-04-25T07:39:54;65917.72;;;4.55;100.00
46614;BME280;32338;50.430;6.806;2023-04-25T07:42:21;65932.16;;;4.74;100.00
46614;BME280;32338;50.430;6.806;2023-04-25T07:44:47;65935.72;;;4.79;100.00
46614;BME280;32338;50.430;6.806;2023-04-25T07:47:14;65957.97;;;4.97;100.00
46614;BME280;32338;50.430;6.806;2023-04-25T07:49:41;65961.47;;;4.96;100.00
46614;BME280;32338;50.430;6.806;2023-04-25T07:52:07;65947.31;;;4.87;100.00
46614;BME280;32338;50.430;6.806;2023-04-25T07:54:34;65957.19;;;4.94;100.00
46614;BME280;32338;50.430;6.806;2023-04-25T07:57:02;65971.97;;;5.10;100.00
46614;BME280;32338;50.430;6.806;2023-04-25T07:59:29;65979.81;;;5.17;100.00
46614;BME280;32338;50.430;6.806;2023-04-25T08:01:55;66008.56;;;5.39;100.00
46614;BME280;32338;50.430;6.806;2023-04-25T08:04:23;66022.03;;;5.51;100.00
46614;BME280;32338;50.430;6.806;2023-04-25T08:06:50;66019.44;;;5.51;100.00
46614;BME280;32338;50.430;6.806;2023-04-25T08:09:17;66006.34;;;5.37;100.00
46614;BME280;32338;50.430;6.806;2023-04-25T08:11:44;65987.69;;;5.25;100.00
46614;BME280;32338;50.430;6.806;2023-04-25T08:14:12;65979.03;;;5.14;100.00
46614;BME280;32338;50.430;6.806;2023-04-25T08:16:39;65954.38;;;4.92;100.00
46614;BME280;32338;50.430;6.806;2023-04-25T08:19:06;65938.91;;;4.80;100.00
46614;BME280;32338;50.430;6.806;2023-04-25T08:21:32;65932.53;;;4.71;100.00
46614;BME280;32338;50.430;6.806;2023-04-25T08:23:59;65924.53;;;4.69;100.00
46614;BME280;32338;50.430;6.806;2023-04-25T08:26:25;65941.28;;;4.77;100.00
46614;BME280;32338;50.430;6.806;2023-04-25T08:28:52;65942.25;;;4.83;100.00
46614;BME280;32338;50.430;6.806;2023-04-25T08:31:20;65953.03;;;4.88;100.00
46614;BME280;32338;50.430;6.806;2023-04-25T08:33:47;65965.59;;;5.02;100.00
46614;BME280;32338;50.430;6.806;2023-04-25T08:36:14;65988.03;;;5.23;100.00
46614;BME280;32338;50.430;6.806;2023-04-25T08:38:41;65995.31;;;5.29;100.00
46614;BME280;32338;50.430;6.806;2023-04-25T08:41:08;65998.47;;;5.30;100.00
46614;BME280;32338;50.430;6.806;2023-04-25T08:43:37;66007.44;;;5.38;100.00
46614;BME280;32338;50.430;6.806;2023-04-25T08:46:05;66027.09;;;5.56;100.00
46614;BME280;32338;50.430;6.806;2023-04-25T08:48:33;66031.56;;;5.60;100.00
46614;BME280;32338;50.430;6.806;2023-04-25T08:51:02;66031.97;;;5.65;100.00
46614;BME280;32338;50.430;6.806;2023-04-25T08:53:32;66023.16;;;5.52;100.00
46614;BME280;32338;50.430;6.806;2023-04-25T08:56:00;66024.28;;;5.54;100.00
46614;BME280;32338;50.430;6.806;2023-04-25T08:58:28;66038.50;;;5.69;100.00
46614;BME280;32338;50.430;6.806;2023-04-25T09:00:55;66046.91;;;5.77;100.00
46614;BME280;32338;50.430;6.806;2023-04-25T09:03:21;66057.97;;;5.92;100.00
46614;BME280;32338;50.430;6.806;2023-04-25T09:05:50;66069.16;;;5.95;100.00
46614;BME280;32338;50.430;6.806;2023-04-25T09:08:18;66041.50;;;5.74;100.00
46614;BME280;32338;50.430;6.806;2023-04-25T09:10:44;66046.91;;;5.77;100.00
46614;BME280;32338;50.430;6.806;2023-04-25T09:13:12;66055.31;;;5.84;100.00
46614;BME280;32338;50.430;6.806;2023-04-25T09:15:48;66063.19;;;5.92;100.00
46614;BME280;32338;50.430;6.806;2023-04-25T09:18:22;66095.56;;;6.19;100.00
46614;BME280;32338;50.430;6.806;2023-04-25T09:20:51;66093.72;;;6.22;100.00
46614;BME280;32338;50.430;6.806;2023-04-25T09:23:19;66089.03;;;6.15;100.00
46614;BME280;32338;50.430;6.806;2023-04-25T09:25:48;66085.28;;;6.14;100.00
46614;BME280;32338;50.430;6.806;2023-04-25T09:28:15;66098.75;;;6.27;100.00
46614;BME280;32338;50.430;6.806;2023-04-25T09:30:42;66131.13;;;6.54;100.00
46614;BME280;32338;50.430;6.806;2023-04-25T09:33:10;66160.31;;;6.81;100.00
46614;BME280;32338;50.430;6.806;2023-04-25T09:35:38;66202.44;;;7.20;100.00
46614;BME280;32338;50.430;6.806;2023-04-25T09:38:11;66207.84;;;7.22;100.00
46614;BME280;32338;50.430;6.806;2023-04-25T09:40:41;66190.84;;;7.11;100.00
46614;BME280;32338;50.430;6.806;2023-04-25T09:43:18;66214.41;;;7.26;100.00
46614;BME280;32338;50.430;6.806;2023-04-25T09:45:45;66221.38;;;7.42;100.00
46614;BME280;32338;50.430;6.806;2023-04-25T09:48:17;66241.78;;;7.56;100.00
46614;BME280;32338;50.430;6.806;2023-04-25T09:50:44;66236.72;;;7.51;100.00
46614;BME280;32338;50.430;6.806;2023-04-25T09:53:12;66252.81;;;7.63;100.00
46614;BME280;32338;50.430;6.806;2023-04-25T09:55:39;66218.94;;;7.37;100.00
46614;BME280;32338;50.430;6.806;2023-04-25T09:58:08;66182.78;;;7.02;100.00
46614;BME280;32338;50.430;6.806;2023-04-25T10:00:37;66150.81;;;6.79;100.00
46614;BME280;32338;50.430;6.806;2023-04-25T10:03:05;66148.34;;;6.68;99.42
46614;BME280;32338;50.430;6.806;2023-04-25T10:05:34;66158.09;;;6.79;100.00
46614;BME280;32338;50.430;6.806;2023-04-25T10:08:03;66162.78;;;6.86;100.00
46614;BME280;32338;50.430;6.806;2023-04-25T10:10:32;66149.66;;;6.71;93.41
46614;BME280;32338;50.430;6.806;2023-04-25T10:13:03;66169.66;;;6.87;91.02
46614;BME280;32338;50.430;6.806;2023-04-25T10:15:30;66186.72;;;7.05;97.68
46614;BME280;32338;50.430;6.806;2023-04-25T10:17:58;66202.09;;;7.22;100.00
46614;BME280;32338;50.430;6.806;2023-04-25T10:20:25;66200.75;;;7.18;100.00
46614;BME280;32338;50.430;6.806;2023-04-25T10:22:54;66187.47;;;7.08;98.71
46614;BME280;32338;50.430;6.806;2023-04-25T10:25:23;66183.16;;;7.00;100.00
46614;BME280;32338;50.430;6.806;2023-04-25T10:27:51;66165.03;;;6.88;100.00
46614;BME280;32338;50.430;6.806;2023-04-25T10:30:18;66177.94;;;7.00;100.00
46614;BME280;32338;50.430;6.806;2023-04-25T10:32:45;66192.34;;;7.10;100.00
46614;BME280;32338;50.430;6.806;2023-04-25T10:35:17;66221.91;;;7.35;100.00
46614;BME280;32338;50.430;6.806;2023-04-25T10:37:57;66256.03;;;7.71;100.00
46614;BME280;32338;50.430;6.806;2023-04-25T10:40:25;66290.31;;;8.03;100.00
46614;BME280;32338;50.430;6.806;2023-04-25T10:42:53;66316.91;;;8.22;100.00
46614;BME280;32338;50.430;6.806;2023-04-25T10:45:21;66316.53;;;8.24;100.00
46614;BME280;32338;50.430;6.806;2023-04-25T10:47:48;66290.72;;;8.08;100.00
46614;BME280;32338;50.430;6.806;2023-04-25T10:50:15;66332.50;;;8.41;100.00
46614;BME280;32338;50.430;6.806;2023-04-25T10:52:42;66326.88;;;8.36;100.00
46614;BME280;32338;50.430;6.806;2023-04-25T10:55:09;66341.88;;;8.48;100.00
46614;BME280;32338;50.430;6.806;2023-04-25T10:57:37;66317.47;;;8.23;100.00
46614;BME280;32338;50.430;6.806;2023-04-25T11:00:23;66291.06;;;8.06;100.00
46614;BME280;32338;50.430;6.806;2023-04-25T11:02:53;66250.41;;;7.66;100.00
46614;BME280;32338;50.430;6.806;2023-04-25T11:05:31;66242.91;;;7.57;100.00
46614;BME280;32338;50.430;6.806;2023-04-25T11:07:58;66262.78;;;7.77;100.00
46614;BME280;32338;50.430;6.806;2023-04-25T11:10:26;66272.13;;;7.84;100.00
46614;BME280;32338;50.430;6.806;2023-04-25T11:12:53;66282.44;;;7.95;100.00
46614;BME280;32338;50.430;6.806;2023-04-25T11:15:20;66278.50;;;7.92;100.00
46614;BME280;32338;50.430;6.806;2023-04-25T11:17:48;66302.50;;;8.11;100.00
46614;BME280;32338;50.430;6.806;2023-04-25T11:20:15;66303.03;;;8.12;100.00
46614;BME280;32338;50.430;6.806;2023-04-25T11:22:44;66294.06;;;8.04;100.00
46614;BME280;32338;50.430;6.806;2023-04-25T11:25:12;66259.00;;;7.69;99.49
46614;BME280;32338;50.430;6.806;2023-04-25T11:27:49;66230.91;;;7.43;100.00
46614;BME280;32338;50.430;6.806;2023-04-25T11:30:16;66220.06;;;7.38;100.00
46614;BME280;32338;50.430;6.806;2023-04-25T11:32:42;66227.19;;;7.42;100.00
46614;BME280;32338;50.430;6.806;2023-04-25T11:35:11;66241.22;;;7.55;100.00
46614;BME280;32338;50.430;6.806;2023-04-25T11:37:38;66246.28;;;7.60;99.61
46614;BME280;32338;50.430;6.806;2023-04-25T11:40:06;66234.69;;;7.52;98.55
46614;BME280;32338;50.430;6.806;2023-04-25T11:42:34;66239.34;;;7.51;100.00
46614;BME280;32338;50.430;6.806;2023-04-25T11:45:00;66246.69;;;7.65;100.00
46614;BME280;32338;50.430;6.806;2023-04-25T11:47:29;66267.63;;;7.79;99.87
46614;BME280;32338;50.430;6.806;2023-04-25T11:49:57;66273.81;;;7.85;94.21
46614;BME280;32338;50.430;6.806;2023-04-25T11:52:35;66284.50;;;7.95;87.72
46614;BME280;32338;50.430;6.806;2023-04-25T11:55:04;66267.28;;;7.82;87.33
46614;BME280;32338;50.430;6.806;2023-04-25T11:57:32;66286.38;;;7.99;89.51
46614;BME280;32338;50.430;6.806;2023-04-25T12:00:06;66290.88;;;8.03;92.02
46614;BME280;32338;50.430;6.806;2023-04-25T12:02:34;66315.06;;;8.25;100.00
46614;BME280;32338;50.430;6.806;2023-04-25T12:05:01;66337.91;;;8.44;93.36
46614;BME280;32338;50.430;6.806;2023-04-25T12:07:30;66331.53;;;8.36;92.60
46614;BME280;32338;50.430;6.806;2023-04-25T12:09:57;66328.34;;;8.35;95.96
46614;BME280;32338;50.430;6.806;2023-04-25T12:12:27;66342.78;;;8.46;100.00
46614;BME280;32338;50.430;6.806;2023-04-25T12:14:53;66345.03;;;8.48;100.00
46614;BME280;32338;50.430;6.806;2023-04-25T12:17:20;66375.41;;;8.76;100.00
46614;BME280;32338;50.430;6.806;2023-04-25T12:19:48;66381.22;;;8.84;99.93
46614;BME280;32338;50.430;6.806;2023-04-25T12:22:19;66355.56;;;8.63;85.32
46614;BME280;32338;50.430;6.806;2023-04-25T12:24:48;66344.13;;;8.50;85.70
46614;BME280;32338;50.430;6.806;2023-04-25T12:27:16;66329.88;;;8.41;87.37
46614;BME280;32338;50.430;6.806;2023-04-25T12:29:50;66405.06;;;9.08;85.31
46614;BME280;32338;50.430;6.806;2023-04-25T12:32:17;66391.22;;;8.98;93.86
46614;BME280;32338;50.430;6.806;2023-04-25T12:34:44;66402.22;;;8.98;91.59
46614;BME280;32338;50.430;6.806;2023-04-25T12:37:11;66365.66;;;8.65;88.19
46614;BME280;32338;50.430;6.806;2023-04-25T12:39:38;66321.44;;;8.34;91.59
46614;BME280;32338;50.430;6.806;2023-04-25T12:42:06;66313.38;;;8.24;96.68
46614;BME280;32338;50.430;6.806;2023-04-25T12:44:36;66316.53;;;8.24;91.08
46614;BME280;32338;50.430;6.806;2023-04-25T12:47:03;66316.34;;;8.22;93.96
46614;BME280;32338;50.430;6.806;2023-04-25T12:49:30;66301.38;;;8.10;96.10
46614;BME280;32338;50.430;6.806;2023-04-25T12:51:57;66311.47;;;8.20;95.64
46614;BME280;32338;50.430;6.806;2023-04-25T12:54:24;66310.97;;;8.26;94.15
46614;BME280;32338;50.430;6.806;2023-04-25T12:56:51;66304.94;;;8.16;92.84
46614;BME280;32338;50.430;6.806;2023-04-25T12:59:19;66273.44;;;7.87;93.30
46614;BME280;32338;50.430;6.806;2023-04-25T13:01:46;66254.91;;;7.70;94.71
46614;BME280;32338;50.430;6.806;2023-04-25T13:04:13;66253.00;;;7.66;100.00